Time;durP1;ratioP1;P1;durP2;ratioP2;P2;SDS_P1;SDS_P2;PMS_P1;PMS_P2;Temp;Humidity;BMP_temperature;BMP_pressure;BME280_temperature;BME280_humidity;BME280_pressure;Samples;Min_cycle;Max_cycle;Signal;HPM_P1;HPM_P2
2021/08/07 00:00:28;;;;;;;0.10;0.10;;;;;;;19.46;60.21;100443.66;4924045;29;20052;-89
2021/08/07 00:02:59;;;;;;;0.10;0.10;;;;;;;19.61;59.51;100437.28;4914956;29;20039;-90
2021/08/07 00:06:07;;;;;;;;;;;;;;;;;;;;;
2021/08/07 00:09:43;;;;;;;;;;;;;;;;;;;;;
2021/08/07 00:12:19;;;;;;;0.10;0.10;;;;;;;19.47;60.80;100440.84;4907584;29;20091;-91
2021/08/07 00:15:31;;;;;;;0.00;0.00;;;;;;;19.59;60.37;100444.59;4946190;28;20073;-91
2021/08/07 00:18:46;;;;;;;;;;;;;;;;;;;;;
2021/08/07 00:21:48;;;;;;;0.70;0.70;;;;;;;19.43;60.55;100443.81;4842998;29;20034;-92
2021/08/07 00:25:10;;;;;;;;;;;;;;;;;;;;;
2021/08/07 00:36:34;;;;;;;;;;;;;;;;;;;;;
2021/08/07 00:39:15;;;;;;;0.08;0.08;;;;;;;19.17;61.61;100449.03;4890685;28;20185;-91
2021/08/07 00:42:35;;;;;;;0.10;0.10;;;;;;;19.32;61.13;100447.22;4932758;29;20040;-91
2021/08/07 00:53:28;;;;;;;0.20;0.20;;;;;;;19.12;61.31;100440.41;4753241;29;20071;-91
2021/08/07 01:04:33;;;;;;;0.20;0.20;;;;;;;18.97;62.22;100435.03;5057696;23;20058;-91
2021/08/07 01:07:24;;;;;;;0.10;0.10;;;;;;;18.91;62.06;100438.09;4947068;28;20051;-90
2021/08/07 01:40:08;;;;;;;0.30;0.30;;;;;;;18.71;63.24;100415.97;6040048;23;20288;-92
2021/08/07 01:52:43;;;;;;;0.30;0.30;;;;;;;18.52;63.29;100410.88;6312610;22;20023;-91
2021/08/07 01:57:17;;;;;;;0.10;0.10;;;;;;;18.51;64.10;100393.03;6137153;23;20075;-91
2021/08/07 02:03:38;;;;;;;;;;;;;;;;;;;;;
2021/08/07 02:06:38;;;;;;;0.10;0.10;;;;;;;18.53;63.64;100395.63;6217889;22;20098;-91
2021/08/07 02:10:18;;;;;;;;;;;;;;;;;;;;;
2021/08/07 02:13:39;;;;;;;0.08;0.08;;;;;;;18.50;63.73;100398.50;6080757;23;20014;-92
2021/08/07 02:20:46;;;;;;;0.03;0.03;;;;;;;18.61;63.58;100408.59;5987650;24;20416;-92
2021/08/07 02:25:09;;;;;;;0.10;0.10;;;;;;;18.53;63.73;100407.25;5985829;23;20015;-91
2021/08/07 03:35:44;;;;;;;;;;;;;;;;;;;;;
2021/08/07 03:51:47;;;;;;;;;;;;;;;;;;;;;
2021/08/07 04:19:02;;;;;;;0.10;0.10;;;;;;;18.76;64.44;100360.19;6184190;22;20072;-91
2021/08/07 04:33:11;;;;;;;;;;;;;;;;;;;;;
2021/08/07 04:37:04;;;;;;;0.10;0.10;;;;;;;18.64;64.73;100360.97;5926630;24;20100;-92
2021/08/07 05:04:12;;;;;;;0.10;0.10;;;;;;;18.51;65.64;100358.16;6121407;23;20550;-90
2021/08/07 05:06:44;;;;;;;;;;;;;;;18.55;65.29;100353.47;6084712;23;20041;-91
2021/08/07 05:48:20;;;;;;;0.10;0.10;;;;;;;19.17;65.90;100341.63;6142499;22;20021;-90
2021/08/07 05:51:36;;;;;;;;;;;;;;;;;;;;;
2021/08/07 05:59:44;;;;;;;0.13;0.13;;;;;;;19.58;64.67;100345.25;6134787;22;20360;-88
2021/08/07 06:02:10;;;;;;;0.10;0.10;;;;;;;19.55;64.35;100343.63;6152055;23;20009;-90
2021/08/07 06:04:39;;;;;;;0.10;0.10;;;;;;;19.61;63.87;100343.22;6152101;22;20158;-90
2021/08/07 06:07:20;;;;;;;0.10;0.10;;;;;;;19.75;63.80;100352.19;6151058;22;20008;-90
2021/08/07 06:09:57;;;;;;;0.10;0.10;;;;;;;19.53;63.61;100337.50;6151703;23;20017;-90
2021/08/07 06:13:15;;;;;;;0.00;0.00;;;;;;;19.73;63.00;100328.97;6151871;23;20325;-91
2021/08/07 06:15:41;;;;;;;0.10;0.10;;;;;;;19.59;62.61;100334.41;6137823;22;20041;-86
2021/08/07 06:18:45;;;;;;;0.20;0.20;;;;;;;19.70;62.33;100329.19;6152219;23;20024;-92
2021/08/07 06:21:14;;;;;;;0.10;0.10;;;;;;;19.87;61.49;100329.91;6151895;22;20404;-89
2021/08/07 06:23:43;;;;;;;0.10;0.10;;;;;;;20.04;61.38;100321.56;6151763;23;20009;-89
2021/08/07 06:26:10;;;;;;;0.10;0.10;;;;;;;19.95;59.99;100327.56;6151539;22;20006;-89
2021/08/07 06:28:59;;;;;;;0.10;0.10;;;;;;;20.16;59.74;100325.25;6151230;22;20009;-90
2021/08/07 06:31:25;;;;;;;0.93;0.93;;;;;;;20.03;59.27;100319.84;6149301;22;20403;-89
2021/08/07 06:34:41;;;;;;;2.60;2.28;;;;;;;20.22;59.27;100323.94;6151939;22;20083;-88
2021/08/07 06:36:49;;;;;;;0.32;0.32;;;;;;;20.33;58.89;100325.91;6168031;22;20010;-89
2021/08/07 06:39:15;;;;;;;0.10;0.10;;;;;;;20.27;58.80;100319.09;6152001;23;20426;-88
2021/08/07 06:42:01;;;;;;;0.10;0.10;;;;;;;20.29;58.52;100325.25;6150652;23;20001;-91
2021/08/07 06:44:30;;;;;;;0.25;0.25;;;;;;;20.30;58.67;100321.59;6151454;22;20009;-89
2021/08/07 06:46:57;;;;;;;0.10;0.10;;;;;;;20.16;58.42;100324.38;6152975;22;20491;-88
2021/08/07 08:50:34;;;;;;;0.10;0.10;;;;;;;22.98;52.72;100282.84;6160810;22;20033;-96
2021/08/07 08:53:26;;;;;;;0.10;0.10;;;;;;;22.74;53.27;100291.06;6189551;23;20029;-96
2021/08/07 08:56:56;;;;;;;0.20;0.20;;;;;;;22.94;52.95;100279.53;6311290;22;20007;-96
2021/08/07 08:59:35;;;;;;;0.10;0.10;;;;;;;22.97;51.96;100266.75;6184730;23;20043;-95
2021/08/07 09:02:27;;;;;;;0.95;0.55;;;;;;;23.14;50.87;100270.78;6189047;23;20063;-94
2021/08/07 09:05:25;;;;;;;0.80;0.80;;;;;;;23.19;50.35;100269.44;6296592;22;20011;-96
2021/08/07 09:08:06;;;;;;;0.10;0.10;;;;;;;23.16;50.32;100264.28;6296049;22;20007;-94
2021/08/07 09:11:09;;;;;;;0.10;0.10;;;;;;;23.20;51.21;100254.09;6320989;22;20358;-96
2021/08/07 09:13:45;;;;;;;0.10;0.10;;;;;;;23.15;51.45;100256.28;6275410;22;20016;-95
2021/08/07 09:18:22;;;;;;;0.10;0.10;;;;;;;23.15;50.32;100246.31;6310909;22;20017;-94
2021/08/07 09:22:44;;;;;;;0.10;0.10;;;;;;;23.57;50.45;100234.78;6276313;22;20107;-93
2021/08/07 09:25:13;;;;;;;0.30;0.30;;;;;;;23.61;50.50;100236.22;6279114;22;20015;-94
2021/08/07 09:27:44;;;;;;;0.17;0.17;;;;;;;23.57;51.03;100232.94;6277402;22;20008;-91
2021/08/07 09:33:25;;;;;;;0.28;0.28;;;;;;;23.22;49.68;100228.66;5157813;27;20413;-90
2021/08/07 09:35:52;;;;;;;0.10;0.10;;;;;;;23.16;50.37;100231.84;5113438;28;20135;-92
2021/08/07 09:38:31;;;;;;;0.10;0.10;;;;;;;23.24;50.82;100228.50;5112916;28;20066;-93
2021/08/07 10:22:25;;;;;;;0.10;0.10;;;;;;;22.89;58.78;100191.75;5488339;22;20056;-91
2021/08/07 10:24:53;;;;;;;0.10;0.10;;;;;;;23.00;57.98;100196.25;5070632;28;20035;-90
2021/08/07 10:27:21;;;;;;;0.52;0.52;;;;;;;23.11;57.17;100185.41;5070493;28;20388;-90
2021/08/07 10:29:51;;;;;;;0.10;0.10;;;;;;;23.04;57.95;100189.59;5070289;28;20416;-89
2021/08/07 10:32:20;;;;;;;0.55;0.55;;;;;;;22.99;58.06;100191.84;5070190;28;20064;-91
2021/08/07 10:34:50;;;;;;;0.20;0.20;;;;;;;22.99;58.53;100195.41;5070594;28;20037;-90
2021/08/07 10:37:16;;;;;;;0.30;0.30;;;;;;;22.79;54.32;100186.22;5069862;28;20028;-90
2021/08/07 10:39:43;;;;;;;1.55;0.40;;;;;;;22.89;55.86;100184.50;5070109;28;20028;-90
2021/08/07 10:42:14;;;;;;;0.25;0.25;;;;;;;22.93;56.10;100177.00;5067661;28;20159;-93
2021/08/07 10:44:44;;;;;;;0.10;0.10;;;;;;;23.05;56.46;100180.53;5056653;28;20396;-91
2021/08/07 10:47:10;;;;;;;0.32;0.30;;;;;;;23.04;55.33;100170.69;5057012;28;20112;-91
2021/08/07 10:49:39;;;;;;;0.10;0.10;;;;;;;23.27;54.20;100175.06;5056950;28;20035;-92
2021/08/07 10:55:41;;;;;;;0.10;0.10;;;;;;;23.53;52.25;100166.59;5153837;27;20382;-92
2021/08/07 10:58:48;;;;;;;0.10;0.10;;;;;;;23.66;52.59;100168.25;5153985;27;20112;-89
2021/08/07 11:01:31;;;;;;;0.10;0.10;;;;;;;23.39;48.23;100161.50;5152732;27;20476;-90
2021/08/07 11:04:28;;;;;;;0.25;0.22;;;;;;;23.48;51.27;100163.44;5154922;27;20115;-90
2021/08/07 11:09:41;;;;;;;2.20;1.38;;;;;;;23.70;50.07;100162.44;5090284;28;20895;-90
2021/08/07 11:14:52;;;;;;;0.50;0.40;;;;;;;24.04;50.13;100156.81;5111510;27;20396;-81
2021/08/07 11:20:07;;;;;;;0.20;0.20;;;;;;;24.14;46.93;100158.69;5070195;28;20397;-81
2021/08/07 11:25:18;;;;;;;0.20;0.20;;;;;;;24.43;44.86;100139.88;5091144;27;20467;-90
2021/08/07 11:30:36;;;;;;;0.10;0.10;;;;;;;24.75;43.87;100136.16;5069632;28;20399;-90
2021/08/07 11:40:27;;;;;;;0.10;0.10;;;;;;;24.83;43.98;100130.00;5084300;27;20409;-92
2021/08/07 11:45:20;;;;;;;0.10;0.10;;;;;;;24.54;42.66;100120.81;5102684;27;20389;-93
2021/08/07 11:47:55;;;;;;;0.30;0.30;;;;;;;24.51;42.70;100121.09;5090671;28;20038;-94
2021/08/07 11:50:21;;;;;;;0.10;0.10;;;;;;;24.42;43.47;100121.06;5086165;28;20016;-93
2021/08/07 12:00:37;;;;;;;0.10;0.10;;;;;;;24.83;41.15;100109.19;5343691;22;20053;-89
2021/08/07 12:46:16;;;;;;;0.10;0.10;;;;;;;25.71;41.97;100077.56;5553078;22;20048;-89
2021/08/07 13:02:14;;;;;;;0.10;0.10;;;;;;;27.32;39.59;100048.13;5070308;27;20403;-81
2021/08/07 13:07:32;;;;;;;0.35;0.35;;;;;;;27.34;38.76;100046.94;5073195;27;20918;-82
2021/08/07 13:13:04;;;;;;;0.10;0.10;;;;;;;27.06;40.12;100048.94;5067847;28;20503;-85
2021/08/07 13:15:30;;;;;;;0.10;0.10;;;;;;;27.16;40.09;100057.00;5049784;28;20033;-85
2021/08/07 13:18:00;;;;;;;0.10;0.10;;;;;;;27.09;40.06;100054.91;5049101;28;20059;-85
2021/08/07 13:20:44;;;;;;;0.20;0.20;;;;;;;27.15;39.78;100050.69;5047868;28;20032;-84
2021/08/07 13:23:12;;;;;;;0.40;0.40;;;;;;;26.78;37.70;100044.44;5047509;28;20035;-84
2021/08/07 13:25:39;;;;;;;0.30;0.30;;;;;;;26.90;38.46;100052.34;5048821;28;20040;-85
2021/08/07 13:28:16;;;;;;;0.10;0.10;;;;;;;27.09;38.80;100046.75;5049681;28;20053;-85
2021/08/07 13:30:47;;;;;;;0.10;0.10;;;;;;;27.43;38.64;100047.88;5047193;28;20799;-88
2021/08/07 13:33:26;;;;;;;0.10;0.10;;;;;;;27.58;37.12;100042.69;5048851;28;20029;-89
2021/08/07 13:35:52;;;;;;;0.10;0.10;;;;;;;27.58;37.28;100048.13;5047538;28;20029;-84
2021/08/07 13:38:18;;;;;;;0.10;0.10;;;;;;;27.78;37.10;100043.31;5049020;28;20021;-83
2021/08/07 13:40:45;;;;;;;0.20;0.20;;;;;;;27.74;36.79;100047.38;5048301;28;20025;-83
2021/08/07 13:43:11;;;;;;;0.00;0.00;;;;;;;27.84;36.01;100034.50;5048580;28;20063;-83
2021/08/07 13:45:38;;;;;;;0.10;0.10;;;;;;;27.69;35.72;100034.25;5049043;28;20029;-83
2021/08/07 13:48:05;;;;;;;0.10;0.10;;;;;;;27.51;35.71;100038.91;5046284;28;20037;-83
2021/08/07 13:50:31;;;;;;;0.10;0.10;;;;;;;27.56;36.54;100031.09;5047466;28;20065;-83
2021/08/07 13:52:57;;;;;;;0.10;0.10;;;;;;;27.42;36.63;100030.69;5045848;28;20112;-82
2021/08/07 13:55:23;;;;;;;0.15;0.15;;;;;;;27.48;36.92;100028.34;5048140;28;20021;-83
2021/08/07 13:57:49;;;;;;;0.30;0.30;;;;;;;27.53;36.94;100017.84;5048149;28;20379;-82
2021/08/07 14:00:16;;;;;;;0.10;0.10;;;;;;;27.48;37.41;100020.16;5047791;28;20105;-84
2021/08/07 14:02:42;;;;;;;1.45;0.60;;;;;;;27.56;37.77;100017.50;5047852;28;20037;-80
2021/08/07 14:05:08;;;;;;;0.10;0.10;;;;;;;27.64;37.51;100014.84;5047731;28;20057;-80
2021/08/07 14:07:35;;;;;;;0.10;0.10;;;;;;;27.60;36.79;100018.88;5047838;28;20029;-81
2021/08/07 14:10:01;;;;;;;1.88;1.10;;;;;;;27.83;37.42;100007.44;5047415;28;20771;-81
2021/08/07 14:12:27;;;;;;;0.00;0.00;;;;;;;27.91;37.29;100007.47;5047570;28;20045;-81
2021/08/07 14:14:53;;;;;;;0.10;0.10;;;;;;;27.91;36.76;100002.00;5048403;28;20030;-82
2021/08/07 14:17:19;;;;;;;6.13;0.32;;;;;;;27.95;36.84;99997.94;5045762;28;20033;-81
2021/08/07 14:19:46;;;;;;;0.10;0.10;;;;;;;27.87;36.76;99995.19;5047863;28;20025;-82
2021/08/07 14:22:12;;;;;;;0.10;0.10;;;;;;;27.84;35.44;99992.78;5046302;28;20049;-82
2021/08/07 14:24:38;;;;;;;0.08;0.08;;;;;;;27.75;36.65;99995.50;5033950;28;20029;-81
2021/08/07 14:27:04;;;;;;;0.10;0.10;;;;;;;27.44;36.12;99998.75;5034526;28;20079;-81
2021/08/07 14:29:30;;;;;;;0.30;0.30;;;;;;;27.42;36.33;100003.47;5034299;28;20034;-80
2021/08/07 14:31:56;;;;;;;0.10;0.10;;;;;;;27.34;37.54;99987.09;5031819;28;20033;-81
2021/08/07 14:34:23;;;;;;;0.10;0.10;;;;;;;27.26;37.95;99995.19;5034210;28;20026;-80
2021/08/07 14:36:49;;;;;;;0.20;0.20;;;;;;;26.99;38.44;99994.31;5034478;28;20079;-80
2021/08/07 14:39:15;;;;;;;0.10;0.10;;;;;;;26.77;38.40;100001.13;5034382;28;20033;-81
2021/08/07 14:41:42;;;;;;;0.10;0.10;;;;;;;26.66;38.62;99994.03;5034099;28;20071;-80
2021/08/07 14:44:08;;;;;;;0.10;0.10;;;;;;;26.58;39.03;99996.66;5034350;28;20119;-81
2021/08/07 14:46:34;;;;;;;0.10;0.10;;;;;;;26.44;39.17;99990.78;5034097;28;20030;-80
2021/08/07 14:49:01;;;;;;;0.10;0.10;;;;;;;26.40;39.81;100000.25;5034398;28;20021;-81
2021/08/07 14:51:27;;;;;;;0.10;0.10;;;;;;;26.30;39.99;100008.44;5034282;28;20747;-81
2021/08/07 14:53:53;;;;;;;0.10;0.10;;;;;;;26.26;40.13;100000.78;5033952;28;20464;-80
2021/08/07 14:56:22;;;;;;;0.10;0.10;;;;;;;26.19;40.47;100003.25;5034100;28;20080;-82
2021/08/07 15:02:33;;;;;;;0.10;0.10;;;;;;;25.80;41.11;100004.28;5024150;23;20038;-90
2021/08/07 15:04:59;;;;;;;0.10;0.10;;;;;;;25.59;42.15;100007.22;5012641;28;20213;-88
2021/08/07 15:07:25;;;;;;;0.10;0.10;;;;;;;25.40;42.10;100007.31;5013633;28;20018;-88
2021/08/07 15:10:25;;;;;;;0.10;0.10;;;;;;;25.34;45.04;100012.28;5012901;28;20026;-90
2021/08/07 15:12:55;;;;;;;0.10;0.10;;;;;;;24.98;49.42;100024.78;4998263;28;20561;-90
2021/08/07 15:15:28;;;;;;;0.10;0.10;;;;;;;24.62;46.83;100029.88;4990776;28;20026;-87
2021/08/07 15:18:00;;;;;;;0.10;0.10;;;;;;;24.28;47.18;100019.44;4992662;28;20085;-90
2021/08/07 15:20:28;;;;;;;;;;;;;;;24.01;47.62;100026.34;4992661;28;20110;-89
2021/08/07 15:22:54;;;;;;;0.10;0.10;;;;;;;23.66;48.65;100023.06;5081937;23;19921;-89
2021/08/07 15:28:13;;;;;;;0.10;0.10;;;;;;;22.45;53.19;100073.81;5055940;23;20410;-89
2021/08/07 16:05:25;;;;;;;0.10;0.10;;;;;;;20.79;64.75;100010.41;4968779;23;20043;-94
2021/08/07 16:07:55;;;;;;;0.10;0.10;;;;;;;20.86;63.98;100026.97;4918610;29;20043;-96
2021/08/07 16:10:24;;;;;;;0.35;0.35;;;;;;;20.95;63.75;100012.78;5168156;23;20022;-96
2021/08/07 16:15:27;;;;;;;0.10;0.10;;;;;;;21.05;64.01;100018.31;5024363;23;20046;-82
2021/08/07 16:17:58;;;;;;;0.85;0.85;;;;;;;21.15;63.46;100010.41;4974054;28;20035;-92
2021/08/07 16:20:47;;;;;;;0.03;0.03;;;;;;;21.28;63.87;100011.16;4975041;28;20023;-91
2021/08/07 16:23:17;;;;;;;0.08;0.08;;;;;;;21.28;63.43;100005.78;4940934;29;20082;-91
2021/08/07 16:26:25;;;;;;;0.10;0.10;;;;;;;21.38;62.13;100018.50;4956033;29;20107;-92
2021/08/07 16:28:51;;;;;;;0.40;0.40;;;;;;;21.28;63.00;100021.06;4944017;29;20591;-92
2021/08/07 16:31:29;;;;;;;0.10;0.10;;;;;;;21.29;62.29;100018.22;4937540;28;20505;-91
2021/08/07 16:33:58;;;;;;;0.20;0.20;;;;;;;21.20;62.60;100023.47;4947906;29;20078;-90
2021/08/07 16:36:51;;;;;;;0.10;0.10;;;;;;;21.16;62.58;100033.66;4955297;29;20032;-92
2021/08/07 16:39:40;;;;;;;;;;;;;;;21.13;60.69;100052.75;4956429;29;20054;-93
2021/08/07 16:42:30;;;;;;;0.10;0.10;;;;;;;20.89;62.23;100056.34;4955063;28;19968;-92
2021/08/07 16:45:31;;;;;;;0.10;0.10;;;;;;;20.66;63.13;100068.78;4955105;28;20063;-91
2021/08/07 16:48:02;;;;;;;0.10;0.10;;;;;;;20.36;63.32;100086.25;4952567;28;20047;-89
2021/08/07 16:50:34;;;;;;;0.40;0.40;;;;;;;19.89;62.68;100091.41;4955889;29;20439;-92
2021/08/07 16:53:18;;;;;;;0.30;0.30;;;;;;;19.55;63.17;100089.25;4954873;28;20035;-92
2021/08/07 16:55:44;;;;;;;0.10;0.10;;;;;;;19.47;63.41;100069.25;4954946;29;20031;-91
2021/08/07 17:02:07;;;;;;;0.63;0.63;;;;;;;19.21;65.12;100050.41;4934138;29;20119;-94
2021/08/07 17:04:45;;;;;;;0.10;0.10;;;;;;;19.23;65.04;100056.56;4953517;29;20040;-94
2021/08/07 17:07:43;;;;;;;0.10;0.10;;;;;;;19.36;65.02;100062.78;4955198;29;20031;-94
2021/08/07 17:10:52;;;;;;;0.10;0.10;;;;;;;19.46;65.96;100059.47;4947545;28;20039;-94
2021/08/07 17:13:34;;;;;;;0.00;0.00;;;;;;;19.59;66.49;100052.28;4971045;28;20129;-93
2021/08/07 17:16:06;;;;;;;0.10;0.10;;;;;;;19.71;66.09;100051.41;4974595;28;20390;-94
2021/08/07 17:18:56;;;;;;;0.05;0.05;;;;;;;20.00;66.87;100047.59;4973948;28;20030;-94
2021/08/07 17:21:26;;;;;;;0.10;0.10;;;;;;;20.26;66.39;100055.63;4974713;28;20045;-95
2021/08/07 17:24:14;;;;;;;0.10;0.10;;;;;;;20.69;66.19;100058.66;4974487;28;20035;-94
2021/08/07 17:26:44;;;;;;;0.10;0.10;;;;;;;20.87;64.91;100055.59;4959071;28;20050;-94
2021/08/07 17:29:18;;;;;;;0.10;0.10;;;;;;;20.96;64.34;100051.31;4974838;28;20031;-93
2021/08/07 17:31:54;;;;;;;0.10;0.10;;;;;;;20.86;64.86;100053.91;4974998;28;20402;-93
2021/08/07 17:34:29;;;;;;;0.10;0.10;;;;;;;20.78;65.02;100056.28;4974801;28;20175;-93
2021/08/07 17:37:13;;;;;;;0.08;0.08;;;;;;;20.82;65.30;100057.78;4974688;28;20466;-92
2021/08/07 17:39:44;;;;;;;0.10;0.10;;;;;;;20.79;64.95;100052.63;4975411;28;20039;-93
2021/08/07 17:42:18;;;;;;;0.10;0.10;;;;;;;20.89;64.57;100048.25;4975073;28;20529;-94
2021/08/07 17:44:53;;;;;;;0.10;0.10;;;;;;;21.17;64.54;100035.34;4974922;28;20039;-94
2021/08/07 17:47:24;;;;;;;0.05;0.05;;;;;;;21.65;64.15;100035.19;4983851;28;20041;-94
2021/08/07 17:49:54;;;;;;;0.10;0.10;;;;;;;22.11;62.59;100041.44;4974256;28;20027;-94
2021/08/07 17:52:31;;;;;;;0.10;0.10;;;;;;;22.39;60.82;100043.75;4975420;28;20490;-94
2021/08/07 17:55:00;;;;;;;0.10;0.10;;;;;;;22.83;61.41;100031.06;4975081;28;20031;-94
2021/08/07 17:57:38;;;;;;;0.10;0.10;;;;;;;23.21;59.11;100035.06;4975563;28;20455;-93
2021/08/07 18:00:29;;;;;;;0.17;0.17;;;;;;;23.61;58.47;100035.28;4978943;28;20123;-93
2021/08/07 18:03:20;;;;;;;;;;;;;;;;;;;;;
2021/08/07 18:05:59;;;;;;;0.10;0.10;;;;;;;24.12;56.58;100028.94;4960526;28;20410;-94
2021/08/07 18:08:30;;;;;;;0.20;0.20;;;;;;;24.45;57.34;100029.59;4988665;28;20054;-94
2021/08/07 18:11:05;;;;;;;0.20;0.20;;;;;;;24.74;56.44;100039.63;4994203;28;20027;-94
2021/08/07 18:13:40;;;;;;;0.10;0.10;;;;;;;24.79;54.29;100031.91;4988793;28;20410;-95
2021/08/07 18:16:09;;;;;;;0.20;0.20;;;;;;;24.66;54.62;100037.63;4993376;28;20027;-95
2021/08/07 18:18:42;;;;;;;0.10;0.10;;;;;;;24.07;55.11;100042.03;4993633;28;20552;-92
2021/08/07 18:21:20;;;;;;;0.10;0.10;;;;;;;23.57;55.78;100045.50;4994067;28;20117;-93
2021/08/07 18:23:49;;;;;;;0.10;0.10;;;;;;;23.12;57.43;100043.94;4992335;28;20128;-94
2021/08/07 18:26:20;;;;;;;0.10;0.10;;;;;;;22.68;57.92;100059.34;4982083;28;20022;-93
2021/08/07 18:29:04;;;;;;;0.10;0.10;;;;;;;22.11;58.45;100052.22;4981919;28;20371;-94
2021/08/07 18:31:30;;;;;;;0.10;0.10;;;;;;;21.61;59.11;100060.69;4978101;28;20065;-93
2021/08/07 18:33:56;;;;;;;0.10;0.10;;;;;;;21.34;58.06;100059.13;4968141;28;20081;-82
2021/08/07 18:36:22;;;;;;;0.10;0.10;;;;;;;21.05;58.81;100065.91;4967571;28;20031;-91
2021/08/07 18:38:49;;;;;;;0.10;0.10;;;;;;;20.84;59.30;100069.28;4965910;28;20102;-95
2021/08/07 18:41:15;;;;;;;0.13;0.13;;;;;;;20.58;59.76;100065.84;4979638;28;20173;-92
2021/08/07 18:43:42;;;;;;;0.00;0.00;;;;;;;20.45;59.99;100065.88;4977359;28;20038;-91
2021/08/07 18:46:16;;;;;;;0.10;0.10;;;;;;;20.33;60.47;100062.25;4970122;28;20241;-91
2021/08/07 18:48:46;;;;;;;0.10;0.10;;;;;;;20.16;61.21;100058.13;4964859;28;20384;-90
2021/08/07 18:56:20;;;;;;;0.10;0.10;;;;;;;19.91;61.27;100050.97;5600729;23;20489;-95
2021/08/07 18:59:08;;;;;;;0.10;0.10;;;;;;;19.92;61.11;100064.28;4980914;28;20070;-95
2021/08/07 19:02:11;;;;;;;0.10;0.10;;;;;;;19.72;62.26;100071.06;4994560;28;20043;-95
2021/08/07 19:04:59;;;;;;;0.10;0.10;;;;;;;19.59;62.71;100073.78;4985761;28;20034;-94
2021/08/07 19:08:15;;;;;;;0.10;0.10;;;;;;;19.66;61.99;100069.66;4982163;28;20030;-95
2021/08/07 19:16:08;;;;;;;0.10;0.10;;;;;;;19.34;62.97;100080.84;5120792;23;20046;-93
2021/08/07 19:18:16;;;;;;;0.10;0.10;;;;;;;19.21;64.28;100074.59;4871679;29;20208;-89
2021/08/07 19:21:02;;;;;;;0.10;0.10;;;;;;;19.22;63.93;100082.53;5039362;23;20040;-94
2021/08/07 19:29:22;;;;;;;0.10;0.10;;;;;;;19.08;64.29;100080.78;5984029;23;20317;-91
2021/08/07 19:31:52;;;;;;;0.10;0.10;;;;;;;19.07;64.14;100084.44;4953636;29;20054;-88
2021/08/07 19:34:19;;;;;;;0.00;0.00;;;;;;;18.98;64.70;100079.72;4955189;28;20051;-89
2021/08/07 19:36:49;;;;;;;0.10;0.10;;;;;;;18.95;64.55;100084.41;4957830;28;20047;-90
2021/08/07 19:39:17;;;;;;;0.10;0.10;;;;;;;18.86;64.44;100088.56;4957310;28;20094;-92
2021/08/07 19:41:55;;;;;;;0.17;0.17;;;;;;;18.93;64.11;100087.22;4974228;23;20035;-89
2021/08/07 19:44:47;;;;;;;0.10;0.10;;;;;;;18.95;64.61;100090.63;4994851;28;20045;-95
2021/08/07 19:47:17;;;;;;;0.10;0.10;;;;;;;18.87;64.80;100095.66;4976150;28;20052;-89
2021/08/07 19:54:48;;;;;;;0.00;0.00;;;;;;;18.91;64.71;100110.59;5561959;23;20059;-94
2021/08/07 19:57:28;;;;;;;0.05;0.05;;;;;;;18.93;64.84;100119.44;4955734;29;20035;-91
2021/08/07 20:00:12;;;;;;;0.10;0.10;;;;;;;18.92;64.69;100115.00;4954708;28;20055;-89
2021/08/07 20:03:10;;;;;;;0.10;0.10;;;;;;;18.86;64.91;100123.44;4954705;28;20526;-91
2021/08/07 20:05:50;;;;;;;0.10;0.10;;;;;;;18.88;65.41;100113.47;4938586;29;20403;-90
2021/08/07 20:08:41;;;;;;;;;;;;;;;;;;;;;
2021/08/07 20:11:09;;;;;;;0.10;0.10;;;;;;;18.86;65.73;100124.28;4938429;29;20039;-85
2021/08/07 20:24:27;;;;;;;0.10;0.10;;;;;;;19.09;66.51;100132.69;5502395;23;20066;-91
2021/08/07 20:26:59;;;;;;;0.00;0.00;;;;;;;19.06;66.44;100124.81;4992498;23;20453;-90
2021/08/07 20:30:20;;;;;;;0.08;0.08;;;;;;;19.14;66.65;100132.34;4973614;28;20186;-92
2021/08/07 20:33:09;;;;;;;0.10;0.10;;;;;;;19.10;66.58;100133.53;4983829;23;20051;-88
2021/08/07 20:39:23;;;;;;;0.10;0.10;;;;;;;19.14;66.28;100137.72;5215437;23;20082;-90
2021/08/07 20:41:55;;;;;;;0.05;0.05;;;;;;;19.13;66.64;100139.56;4980180;28;20658;-96
2021/08/07 20:44:22;;;;;;;0.10;0.10;;;;;;;19.22;66.18;100140.78;4957025;28;20138;-94
2021/08/07 20:49:31;;;;;;;0.10;0.10;;;;;;;19.21;66.48;100145.25;4985688;23;20379;-96
2021/08/07 20:51:57;;;;;;;0.00;0.00;;;;;;;18.89;67.29;100147.38;4975558;28;20058;-91
2021/08/07 20:54:28;;;;;;;0.28;0.28;;;;;;;19.15;67.02;100156.44;4974185;28;20026;-90
2021/08/07 20:59:20;;;;;;;0.13;0.13;;;;;;;19.15;67.26;100148.38;4989991;23;20042;-93
2021/08/07 21:04:12;;;;;;;0.10;0.10;;;;;;;19.18;67.50;100148.16;5338287;23;20050;-88
2021/08/07 21:09:14;;;;;;;0.00;0.00;;;;;;;19.17;67.56;100142.91;5029366;23;20051;-94
2021/08/07 21:11:40;;;;;;;0.10;0.10;;;;;;;19.22;67.56;100141.63;4954726;28;20402;-90
2021/08/07 21:14:06;;;;;;;0.10;0.10;;;;;;;19.25;67.45;100145.91;4960021;28;20117;-90
2021/08/07 21:16:34;;;;;;;0.20;0.20;;;;;;;19.21;67.79;100139.88;4951500;28;20031;-88
2021/08/07 21:19:01;;;;;;;0.10;0.10;;;;;;;19.20;67.19;100137.31;4954420;28;20040;-89
2021/08/07 21:21:27;;;;;;;0.10;0.10;;;;;;;19.10;67.67;100141.59;4954249;28;20090;-89
2021/08/07 21:23:53;;;;;;;0.10;0.10;;;;;;;19.04;67.48;100141.03;4954435;29;20039;-85
2021/08/07 21:26:35;;;;;;;0.10;0.10;;;;;;;19.06;67.42;100141.78;4952958;29;20087;-92
2021/08/07 21:29:02;;;;;;;0.10;0.10;;;;;;;19.07;67.27;100142.66;4953623;29;20035;-89
2021/08/07 21:31:32;;;;;;;0.30;0.25;;;;;;;19.05;67.27;100139.22;4954964;28;20066;-89
2021/08/07 21:37:16;;;;;;;0.10;0.10;;;;;;;19.05;67.29;100149.94;5013464;23;20051;-91
2021/08/07 21:39:42;;;;;;;0.10;0.10;;;;;;;18.98;67.26;100144.13;4989402;28;20030;-85
2021/08/07 21:42:12;;;;;;;0.00;0.00;;;;;;;19.02;67.27;100147.47;4978174;28;20428;-86
2021/08/07 21:44:40;;;;;;;0.17;0.17;;;;;;;19.03;67.33;100142.00;4978136;28;20106;-86
2021/08/07 21:47:07;;;;;;;0.10;0.10;;;;;;;18.84;67.65;100146.81;4977884;28;20030;-86
2021/08/07 21:49:40;;;;;;;0.00;0.00;;;;;;;18.95;67.68;100144.31;4977896;28;20367;-89
2021/08/07 21:52:09;;;;;;;0.10;0.10;;;;;;;19.03;67.46;100146.53;4978898;28;20065;-86
2021/08/07 21:54:35;;;;;;;0.10;0.10;;;;;;;18.94;68.17;100139.94;4984672;28;20026;-87
2021/08/07 21:57:50;;;;;;;;;;;;;;;;;;;;;
2021/08/07 22:00:44;;;;;;;0.10;0.10;;;;;;;18.90;68.33;100136.59;4974368;28;20100;-88
2021/08/07 22:03:14;;;;;;;0.20;0.20;;;;;;;18.95;68.05;100130.91;4983374;28;20053;-89
2021/08/07 22:05:48;;;;;;;0.00;0.00;;;;;;;18.94;68.33;100126.53;4987303;28;20037;-89
2021/08/07 22:08:15;;;;;;;0.10;0.10;;;;;;;18.91;68.36;100140.13;4986080;28;20046;-90
2021/08/07 22:10:52;;;;;;;0.10;0.10;;;;;;;18.96;67.89;100135.31;4984770;28;20117;-91
2021/08/07 22:13:20;;;;;;;0.10;0.10;;;;;;;18.85;68.74;100127.09;4993234;28;20140;-91
2021/08/07 22:15:47;;;;;;;0.10;0.10;;;;;;;18.86;69.12;100134.19;4994566;28;20038;-92
2021/08/07 22:18:16;;;;;;;0.10;0.10;;;;;;;18.88;69.26;100127.75;4991335;28;20034;-89
2021/08/07 22:20:49;;;;;;;0.10;0.10;;;;;;;18.94;69.14;100121.16;4992246;28;20031;-90
2021/08/07 22:25:38;;;;;;;;;;;;;;;;;;;;;
2021/08/07 22:31:11;;;;;;;0.10;0.10;;;;;;;19.01;68.69;100114.38;4858974;29;20501;-93
2021/08/07 22:34:51;;;;;;;;;;;;;;;;;;;;;
2021/08/07 22:38:43;;;;;;;;;;;;;;;;;;;;;
2021/08/07 22:42:10;;;;;;;0.10;0.10;;;;;;;18.96;69.19;100110.31;4815856;29;20509;-92
2021/08/07 22:44:37;;;;;;;0.85;0.85;;;;;;;19.06;68.91;100106.88;4886192;28;20047;-90
2021/08/07 22:47:06;;;;;;;0.30;0.30;;;;;;;18.93;69.41;100108.69;4967870;28;20096;-89
2021/08/07 22:49:32;;;;;;;0.10;0.10;;;;;;;18.97;69.02;100098.59;4989075;28;20351;-89
2021/08/07 22:52:01;;;;;;;2.17;1.38;;;;;;;18.91;69.43;100111.44;4989246;28;20026;-90
2021/08/07 22:54:28;;;;;;;0.10;0.10;;;;;;;18.86;69.81;100108.19;4988824;28;20038;-88
2021/08/07 22:56:55;;;;;;;0.10;0.10;;;;;;;18.85;69.71;100111.81;4992006;28;20122;-89
2021/08/07 22:59:28;;;;;;;0.10;0.10;;;;;;;18.81;70.13;100112.16;4990872;28;20065;-90
2021/08/07 23:01:55;;;;;;;0.28;0.28;;;;;;;18.75;70.30;100111.59;4990170;28;20482;-88
2021/08/07 23:04:22;;;;;;;0.10;0.10;;;;;;;18.63;70.61;100107.03;4988643;28;20118;-88
2021/08/07 23:06:48;;;;;;;0.10;0.10;;;;;;;18.83;70.12;100112.91;4990820;28;20113;-88